Time;durP1;ratioP1;P1;durP2;ratioP2;P2;SDS_P1;SDS_P2;PMS_P1;PMS_P2;Temp;Humidity;BMP_temperature;BMP_pressure;BME280_temperature;BME280_humidity;BME280_pressure;Samples;Min_cycle;Max_cycle;Signal;HPM_P1;HPM_P2
2022/11/23 00:02:10;;;;;;;;;;;;;;;;;;4424190;32;20026;-68
2022/11/23 00:04:35;;;;;;;41.17;19.90;;;;;;;;;;4424069;32;19980;-69
2022/11/23 00:07:00;;;;;;;;;;;;;;;;;;4422959;32;20538;-69
2022/11/23 00:09:25;;;;;;;40.20;20.85;;;;;;;;;;4422772;32;20016;-69
2022/11/23 00:11:50;;;;;;;;;;;;;;;;;;4422508;32;20257;-69
2022/11/23 00:14:15;;;;;;;41.85;20.80;;;;;;;;;;4420880;32;19984;-71
2022/11/23 00:16:41;;;;;;;42.22;21.77;;;;;;;;;;4423735;32;20052;-69
2022/11/23 00:19:06;;;;;;;;;;;;;;;;;;4422305;32;20079;-70
2022/11/23 00:21:32;;;;;;;33.65;21.58;;;;;;;;;;4421670;32;19963;-69
2022/11/23 00:23:57;;;;;;;;;;;;;;;;;;4424362;32;20528;-68
2022/11/23 00:26:22;;;;;;;40.20;20.73;;;;;;;;;;4421945;32;19989;-69
2022/11/23 00:28:47;;;;;;;;;;;;;;;;;;4422256;32;20110;-69
2022/11/23 00:31:14;;;;;;;43.65;23.20;;;;;;;;;;4421433;32;19937;-69
2022/11/23 00:33:39;;;;;;;38.15;21.55;;;;;;;;;;4421581;32;20451;-67
2022/11/23 00:36:04;;;;;;;;;;;;;;;;;;4422419;32;20481;-68
2022/11/23 00:38:30;;;;;;;37.04;19.94;;;;;;;;;;4422339;32;19937;-68
2022/11/23 00:40:55;;;;;;;;;;;;;;;;;;4422312;32;20048;-68
2022/11/23 00:43:20;;;;;;;32.72;19.85;;;;;;;;;;4423263;32;19937;-68
2022/11/23 00:45:48;;;;;;;39.53;20.85;;;;;;;;;;4421880;32;20086;-68
2022/11/23 00:48:13;;;;;;;35.80;20.30;;;;;;;;;;4421547;32;20069;-68
2022/11/23 00:50:38;;;;;;;;;;;;;;;;;;4424194;32;20400;-69
2022/11/23 00:53:03;;;;;;;32.58;19.17;;;;;;;;;;4422877;32;19933;-69
2022/11/23 00:55:28;;;;;;;30.98;17.85;;;;;;;;;;4423625;32;20068;-69
2022/11/23 00:57:53;;;;;;;;;;;;;;;;;;4422352;32;20078;-69
2022/11/23 01:00:19;;;;;;;32.38;19.62;;;;;;;;;;4421899;32;19993;-69
2022/11/23 01:02:44;;;;;;;35.10;19.45;;;;;;;;;;4419981;32;20085;-69
2022/11/23 01:05:09;;;;;;;;;;;;;;;;;;4421800;32;20025;-69
2022/11/23 01:07:34;;;;;;;29.42;17.85;;;;;;;;;;4421121;32;19941;-70
2022/11/23 01:09:59;;;;;;;37.68;19.46;;;;;;;;;;4421699;32;20340;-69
2022/11/23 01:12:24;;;;;;;;;;;;;;;;;;4421149;32;20153;-69
2022/11/23 01:14:51;;;;;;;35.97;20.20;;;;;;;;;;4421190;32;19937;-69
2022/11/23 01:17:16;;;;;;;37.03;18.85;;;;;;;;;;4420692;32;20370;-69
2022/11/23 01:19:41;;;;;;;;;;;;;;;;;;4421654;32;20093;-69
2022/11/23 01:22:07;;;;;;;41.20;19.08;;;;;;;;;;4421044;32;19933;-69
2022/11/23 01:24:32;;;;;;;;;;;;;;;;;;4419914;32;20156;-70
2022/11/23 01:26:57;;;;;;;39.08;19.25;;;;;;;;;;4420665;32;20018;-69
2022/11/23 01:29:22;;;;;;;;;;;;;;;;;;4421273;32;20144;-69
2022/11/23 01:31:47;;;;;;;38.10;19.60;;;;;;;;;;4421676;32;19933;-69
2022/11/23 01:34:13;;;;;;;;;;;;;;;;;;4422464;32;20382;-67
2022/11/23 01:36:38;;;;;;;34.20;16.73;;;;;;;;;;4420544;32;19952;-69
2022/11/23 01:39:04;;;;;;;;;;;;;;;;;;4429006;27;20042;-76
2022/11/23 01:41:36;;;;;;;27.20;17.05;;;;;;;;;;4391075;32;20333;-76
2022/11/23 01:44:21;;;;;;;36.58;15.95;;;;;;;;;;4390908;32;20232;-75
2022/11/23 01:46:46;;;;;;;33.95;15.60;;;;;;;;;;4405509;32;20176;-75
2022/11/23 01:49:11;;;;;;;;;;;;;;;;;;4404782;32;20345;-74
2022/11/23 01:51:38;;;;;;;23.40;13.98;;;;;;;;;;4390061;32;19961;-76
2022/11/23 01:54:06;;;;;;;31.62;15.15;;;;;;;;;;4390490;32;20060;-75
2022/11/23 01:56:33;;;;;;;31.23;15.00;;;;;;;;;;4390985;32;20056;-75
2022/11/23 01:58:59;;;;;;;30.12;14.07;;;;;;;;;;4406490;32;20513;-76
2022/11/23 02:01:25;;;;;;;31.92;13.02;;;;;;;;;;4419384;32;20042;-75
2022/11/23 02:03:50;;;;;;;;;;;;;;;;;;4420079;32;20022;-75
2022/11/23 02:06:18;;;;;;;31.55;13.05;;;;;;;;;;4418547;32;19941;-74
2022/11/23 02:08:44;;;;;;;29.40;13.82;;;;;;;;;;4406673;32;20034;-74
2022/11/23 02:11:09;;;;;;;;;;;;;;;;;;4419604;32;20021;-74
2022/11/23 02:13:34;;;;;;;25.45;13.00;;;;;;;;;;4405909;32;19952;-74
2022/11/23 02:16:00;;;;;;;29.30;15.06;;;;;;;;;;4407307;32;20310;-74
2022/11/23 02:18:27;;;;;;;33.45;14.75;;;;;;;;;;4419514;32;20035;-74
2022/11/23 02:20:53;;;;;;;27.23;13.52;;;;;;;;;;4420056;32;20094;-75
2022/11/23 02:23:18;;;;;;;;;;;;;;;;;;4406172;32;20049;-74
2022/11/23 02:25:44;;;;;;;24.98;12.13;;;;;;;;;;4406331;32;19951;-74
2022/11/23 02:28:09;;;;;;;;;;;;;;;;;;4405272;32;20122;-74
2022/11/23 02:30:35;;;;;;;29.50;13.52;;;;;;;;;;4404849;32;20031;-74
2022/11/23 02:33:00;;;;;;;;;;;;;;;;;;4390312;32;20423;-74
2022/11/23 02:35:25;;;;;;;26.10;12.05;;;;;;;;;;4403269;32;20319;-75
2022/11/23 02:37:51;;;;;;;33.70;13.88;;;;;;;;;;4404263;32;20034;-74
2022/11/23 02:40:25;;;;;;;29.25;14.07;;;;;;;;;;4403551;32;20053;-76
2022/11/23 02:42:50;;;;;;;25.17;12.55;;;;;;;;;;4406027;32;20427;-74
2022/11/23 02:45:16;;;;;;;;;;;;;;;;;;4404604;32;20042;-75
2022/11/23 02:47:41;;;;;;;27.67;13.10;;;;;;;;;;4403178;32;19989;-75
2022/11/23 02:50:06;;;;;;;;;;;;;;;;;;4398985;32;20125;-74
2022/11/23 02:52:31;;;;;;;24.35;14.27;;;;;;;;;;4417536;32;19945;-74
2022/11/23 02:54:56;;;;;;;;;;;;;;;;;;4419228;32;20022;-74
2022/11/23 02:57:21;;;;;;;28.73;18.00;;;;;;;;;;4418379;32;19999;-74
2022/11/23 02:59:46;;;;;;;;;;;;;;;;;;4417077;32;20152;-74
2022/11/23 03:02:12;;;;;;;28.80;17.90;;;;;;;;;;4417024;32;19980;-75
2022/11/23 03:04:37;;;;;;;34.03;20.27;;;;;;;;;;4406277;32;20075;-74
2022/11/23 03:07:02;;;;;;;;;;;;;;;;;;4419378;32;20026;-74
2022/11/23 03:09:28;;;;;;;29.25;18.70;;;;;;;;;;4418957;32;20281;-74
2022/11/23 03:11:53;;;;;;;33.42;19.80;;;;;;;;;;4420269;32;20029;-74
2022/11/23 03:14:18;;;;;;;;;;;;;;;;;;4419295;32;20026;-75
2022/11/23 03:16:44;;;;;;;32.05;19.12;;;;;;;;;;4405810;32;19937;-74
2022/11/23 03:19:09;;;;;;;;;;;;;;;;;;4418468;32;20086;-74
2022/11/23 03:21:34;;;;;;;35.97;20.37;;;;;;;;;;4418163;32;20336;-74
2022/11/23 03:23:59;;;;;;;34.20;20.35;;;;;;;;;;4419012;32;20102;-73
2022/11/23 03:26:24;;;;;;;;;;;;;;;;;;4417838;32;20404;-74
2022/11/23 03:28:49;;;;;;;33.42;21.40;;;;;;;;;;4419405;32;19937;-74
2022/11/23 03:31:14;;;;;;;31.80;18.85;;;;;;;;;;4418723;32;20094;-74
2022/11/23 03:33:40;;;;;;;;;;;;;;;;;;4420698;32;20038;-74
2022/11/23 03:36:05;;;;;;;25.30;17.85;;;;;;;;;;4405345;32;20284;-74
2022/11/23 03:38:30;;;;;;;33.42;20.30;;;;;;;;;;4419358;32;20064;-74
2022/11/23 03:40:55;;;;;;;;;;;;;;;;;;4420372;32;20031;-74
2022/11/23 03:43:20;;;;;;;37.88;19.25;;;;;;;;;;4418900;32;19933;-74
2022/11/23 03:45:45;;;;;;;;;;;;;;;;;;4419304;32;20095;-74
2022/11/23 03:48:11;;;;;;;31.40;19.37;;;;;;;;;;4418125;32;19933;-74
2022/11/23 03:50:36;;;;;;;32.05;18.02;;;;;;;;;;4418312;32;20022;-73
2022/11/23 03:53:01;;;;;;;;;;;;;;;;;;4419260;32;20026;-73
2022/11/23 03:55:26;;;;;;;32.92;19.35;;;;;;;;;;4418970;32;19945;-73
2022/11/23 03:57:53;;;;;;;;;;;;;;;;;;4419838;32;20079;-73
2022/11/23 04:00:18;;;;;;;29.15;18.60;;;;;;;;;;4418482;32;19993;-73
2022/11/23 04:02:44;;;;;;;;;;;;;;;;;;4419606;32;20026;-73
2022/11/23 04:05:09;;;;;;;28.70;18.45;;;;;;;;;;4426016;32;20023;-72
2022/11/23 04:07:34;;;;;;;;;;;;;;;;;;4421911;32;20118;-72
2022/11/23 04:09:59;;;;;;;34.13;20.50;;;;;;;;;;4422044;32;20001;-72
2022/11/23 04:12:25;;;;;;;30.73;18.67;;;;;;;;;;4419779;32;20033;-72
2022/11/23 04:14:50;;;;;;;25.02;18.17;;;;;;;;;;4421049;32;20026;-73
2022/11/23 04:17:15;;;;;;;;;;;;;;;;;;4408617;32;20345;-72
2022/11/23 04:19:40;;;;;;;25.90;18.12;;;;;;;;;;4414939;32;19975;-72
2022/11/23 04:22:05;;;;;;;;;;;;;;;;;;4392940;32;20212;-73
2022/11/23 04:24:31;;;;;;;23.38;17.23;;;;;;;;;;4406597;32;19975;-72
2022/11/23 04:26:56;;;;;;;27.70;18.45;;;;;;;;;;4404966;32;20038;-72
2022/11/23 04:29:21;;;;;;;;;;;;;;;;;;4390776;32;20074;-72
2022/11/23 04:31:46;;;;;;;26.85;17.45;;;;;;;;;;4390913;32;19937;-72
2022/11/23 04:34:11;;;;;;;;;;;;;;;;;;4408337;32;20085;-72
2022/11/23 04:36:36;;;;;;;26.70;17.33;;;;;;;;;;4407246;32;19934;-72
2022/11/23 04:39:02;;;;;;;28.25;17.05;;;;;;;;;;4405582;32;20135;-72
2022/11/23 04:41:28;;;;;;;29.58;16.00;;;;;;;;;;4391024;32;20022;-72
2022/11/23 04:43:53;;;;;;;;;;;;;;;;;;4406496;32;20060;-72
2022/11/23 04:46:18;;;;;;;29.70;14.73;;;;;;;;;;4405897;32;19938;-72
2022/11/23 04:48:43;;;;;;;;;;;;;;;;;;4407189;32;20092;-72
2022/11/23 04:51:09;;;;;;;25.80;12.85;;;;;;;;;;4419799;32;19952;-72
2022/11/23 04:53:34;;;;;;;18.62;12.05;;;;;;;;;;4421380;32;20057;-72
2022/11/23 04:55:59;;;;;;;;;;;;;;;;;;4420387;32;20363;-72
2022/11/23 04:58:24;;;;;;;23.87;12.07;;;;;;;;;;4420116;32;19944;-72
2022/11/23 05:00:49;;;;;;;23.98;12.60;;;;;;;;;;4406633;32;20336;-73
2022/11/23 05:03:15;;;;;;;;;;;;;;;;;;4421299;32;20094;-72
2022/11/23 05:05:40;;;;;;;21.52;11.75;;;;;;;;;;4420305;32;19964;-72
2022/11/23 05:08:05;;;;;;;;;;;;;;;;;;4408313;32;20171;-72
2022/11/23 05:10:31;;;;;;;19.40;11.07;;;;;;;;;;4405888;32;19937;-72
2022/11/23 05:12:56;;;;;;;;;;;;;;;;;;4419588;32;20130;-72
2022/11/23 05:15:21;;;;;;;28.67;13.70;;;;;;;;;;4418333;32;19973;-71
2022/11/23 05:17:46;;;;;;;;;;;;;;;;;;4421443;32;20125;-71
2022/11/23 05:20:11;;;;;;;23.75;11.85;;;;;;;;;;4419881;32;19948;-71
2022/11/23 05:22:36;;;;;;;27.77;12.98;;;;;;;;;;4407687;32;20371;-71
2022/11/23 05:25:02;;;;;;;;;;;;;;;;;;4422195;32;20080;-71
2022/11/23 05:27:27;;;;;;;26.60;13.80;;;;;;;;;;4420247;32;19982;-71
2022/11/23 05:29:52;;;;;;;21.87;14.13;;;;;;;;;;4420455;32;20026;-72
2022/11/23 05:32:17;;;;;;;;;;;;;;;;;;4421599;32;20022;-71
2022/11/23 05:34:42;;;;;;;21.27;13.07;;;;;;;;;;4420608;32;19964;-72
2022/11/23 05:37:07;;;;;;;;;;;;;;;;;;4421608;32;20178;-70
2022/11/23 05:39:33;;;;;;;22.30;11.55;;;;;;;;;;4418500;32;20014;-70
2022/11/23 05:41:58;;;;;;;;;;;;;;;;;;4405253;32;20264;-71
2022/11/23 05:44:23;;;;;;;22.95;9.52;;;;;;;;;;4420769;32;19951;-71
2022/11/23 05:46:48;;;;;;;13.55;7.03;;;;;;;;;;4405895;32;20037;-71
2022/11/23 05:49:13;;;;;;;;;;;;;;;;;;4420792;32;20017;-72
2022/11/23 05:51:39;;;;;;;14.90;5.35;;;;;;;;;;4419801;32;19952;-71
2022/11/23 05:54:04;;;;;;;;;;;;;;;;;;4420423;32;20182;-71
2022/11/23 05:56:29;;;;;;;8.36;4.14;;;;;;;;;;4420593;32;20368;-71
2022/11/23 05:58:54;;;;;;;;;;;;;;;;;;4419244;32;20056;-70
2022/11/23 06:01:19;;;;;;;19.80;4.22;;;;;;;;;;4405087;32;19959;-71
2022/11/23 06:03:44;;;;;;;13.45;4.05;;;;;;;;;;4418691;32;20118;-70
2022/11/23 06:06:10;;;;;;;;;;;;;;;;;;4405054;32;20458;-70
2022/11/23 06:08:35;;;;;;;16.85;4.47;;;;;;;;;;4419038;32;19951;-71
2022/11/23 06:11:01;;;;;;;13.85;3.85;;;;;;;;;;4420145;32;20119;-70
2022/11/23 06:13:26;;;;;;;10.23;2.90;;;;;;;;;;4419562;32;20021;-71
2022/11/23 06:15:51;;;;;;;;;;;;;;;;;;4419822;32;20057;-72
2022/11/23 06:18:16;;;;;;;11.82;3.37;;;;;;;;;;4419488;32;19937;-71
2022/11/23 06:20:41;;;;;;;;;;;;;;;;;;4419021;32;20153;-71
2022/11/23 06:23:06;;;;;;;18.02;4.50;;;;;;;;;;4405096;32;19955;-72
2022/11/23 06:25:32;;;;;;;17.08;4.45;;;;;;;;;;4420148;32;20399;-71
2022/11/23 06:27:57;;;;;;;;;;;;;;;;;;4419290;32;20075;-71
2022/11/23 06:30:22;;;;;;;25.10;6.00;;;;;;;;;;4419036;32;19987;-71
2022/11/23 06:32:47;;;;;;;21.40;6.80;;;;;;;;;;4419513;32;20034;-71
2022/11/23 06:35:13;;;;;;;;;;;;;;;;;;4419065;32;20030;-71
2022/11/23 06:37:38;;;;;;;27.95;8.65;;;;;;;;;;4419212;32;19934;-71
2022/11/23 06:40:03;;;;;;;;;;;;;;;;;;4420452;32;20026;-71
2022/11/23 06:42:28;;;;;;;30.73;9.15;;;;;;;;;;4421206;32;19944;-71
2022/11/23 06:44:53;;;;;;;19.95;8.55;;;;;;;;;;4422313;32;20360;-71
2022/11/23 06:47:18;;;;;;;;;;;;;;;;;;4422301;32;20021;-71
2022/11/23 06:49:43;;;;;;;26.77;9.13;;;;;;;;;;4422810;32;20333;-71
2022/11/23 06:52:09;;;;;;;;;;;;;;;;;;4407697;32;20114;-71
2022/11/23 06:54:34;;;;;;;18.37;7.70;;;;;;;;;;4421022;32;19937;-71
2022/11/23 06:56:59;;;;;;;449.48;66.40;;;;;;;;;;4415201;32;20048;-71
2022/11/23 06:59:24;;;;;;;;;;;;;;;;;;4400606;32;20026;-71
2022/11/23 07:01:49;;;;;;;28.65;7.12;;;;;;;;;;4405913;32;20283;-71
2022/11/23 07:04:14;;;;;;;22.20;6.68;;;;;;;;;;4404469;32;20045;-70
2022/11/23 07:06:43;;;;;;;;;;;;;;;;;;4404791;32;20163;-71
2022/11/23 07:09:08;;;;;;;27.23;6.57;;;;;;;;;;4403588;32;19988;-71
2022/11/23 07:11:33;;;;;;;;;;;;;;;;;;4419608;32;20329;-71
2022/11/23 07:13:59;;;;;;;26.20;5.90;;;;;;;;;;4418976;32;19933;-71
2022/11/23 07:16:24;;;;;;;;;;;;;;;;;;4416692;32;20121;-71
2022/11/23 07:18:49;;;;;;;245.60;32.95;;;;;;;;;;4395666;32;19974;-71
2022/11/23 07:21:14;;;;;;;;;;;;;;;;;;4410916;32;20118;-70
2022/11/23 07:23:40;;;;;;;17.06;5.52;;;;;;;;;;4406881;32;19996;-71
2022/11/23 07:26:06;;;;;;;11.48;4.12;;;;;;;;;;4407163;32;20455;-71
2022/11/23 07:28:31;;;;;;;;;;;;;;;;;;4405163;32;20022;-70
2022/11/23 07:30:57;;;;;;;22.10;5.20;;;;;;;;;;4389555;32;19938;-70
2022/11/23 07:33:22;;;;;;;20.80;5.87;;;;;;;;;;4405320;32;20418;-72
2022/11/23 07:35:47;;;;;;;;;;;;;;;;;;4405436;32;20056;-70
2022/11/23 07:38:12;;;;;;;25.74;5.68;;;;;;;;;;4403485;32;19988;-70
2022/11/23 07:40:37;;;;;;;;;;;;;;;;;;4413462;32;20025;-70
2022/11/23 07:43:03;;;;;;;15.00;4.32;;;;;;;;;;4421953;32;19969;-70
2022/11/23 07:45:28;;;;;;;;;;;;;;;;;;4422094;32;20125;-71
2022/11/23 07:48:01;;;;;;;18.33;4.45;;;;;;;;;;4404388;32;19989;-70
2022/11/23 07:50:26;;;;;;;17.85;4.50;;;;;;;;;;4421605;32;20394;-71
2022/11/23 07:52:51;;;;;;;;;;;;;;;;;;4422363;32;20061;-71
2022/11/23 07:55:17;;;;;;;28.06;5.52;;;;;;;;;;4421586;32;19956;-70
2022/11/23 07:57:42;;;;;;;;;;;;;;;;;;4419744;32;20107;-71
2022/11/23 08:00:08;;;;;;;26.85;7.05;;;;;;;;;;4420304;32;19949;-71
2022/11/23 08:02:33;;;;;;;;;;;;;;;;;;4422189;32;20038;-71
2022/11/23 08:04:58;;;;;;;16.48;4.18;;;;;;;;;;4407139;32;19941;-71
2022/11/23 08:07:23;;;;;;;;;;;;;;;;;;4412811;32;20118;-70
2022/11/23 08:09:49;;;;;;;26.58;5.10;;;;;;;;;;4421536;32;20295;-71
2022/11/23 08:12:14;;;;;;;20.08;4.62;;;;;;;;;;4420823;32;20196;-71
2022/11/23 08:14:39;;;;;;;24.58;5.07;;;;;;;;;;4420661;32;20336;-70
2022/11/23 08:17:04;;;;;;;;;;;;;;;;;;4409521;32;20057;-70
2022/11/23 08:19:30;;;;;;;18.42;4.80;;;;;;;;;;4424889;32;19973;-70
2022/11/23 08:21:55;;;;;;;24.42;6.53;;;;;;;;;;4422458;32;20068;-70
2022/11/23 08:24:20;;;;;;;;;;;;;;;;;;4422076;32;20053;-70
2022/11/23 08:26:45;;;;;;;45.15;6.53;;;;;;;;;;4420271;32;19936;-70
2022/11/23 08:29:10;;;;;;;;;;;;;;;;;;4408379;32;20130;-70
2022/11/23 08:31:35;;;;;;;21.45;4.90;;;;;;;;;;4421037;32;19933;-69
2022/11/23 08:34:00;;;;;;;;;;;;;;;;;;4421392;32;20122;-70
2022/11/23 08:36:26;;;;;;;20.95;4.68;;;;;;;;;;4421603;32;19933;-70
2022/11/23 08:38:51;;;;;;;16.05;3.97;;;;;;;;;;4420343;32;20056;-69
2022/11/23 08:41:19;;;;;;;;;;;;;;;;;;4396117;32;20405;-70
2022/11/23 08:43:45;;;;;;;21.48;5.25;;;;;;;;;;4413934;32;20289;-70
2022/11/23 08:46:10;;;;;;;;;;;;;;;;;;4420891;32;20030;-70
2022/11/23 08:48:35;;;;;;;25.12;4.72;;;;;;;;;;4421103;32;19952;-70
2022/11/23 08:51:00;;;;;;;22.30;4.42;;;;;;;;;;4406731;32;20034;-70
2022/11/23 08:53:25;;;;;;;;;;;;;;;;;;4421214;32;20020;-70
2022/11/23 08:55:50;;;;;;;17.37;4.37;;;;;;;;;;4421738;32;20311;-70
2022/11/23 08:58:15;;;;;;;;;;;;;;;;;;4421567;32;20047;-71
2022/11/23 09:00:41;;;;;;;19.35;3.97;;;;;;;;;;4420752;32;19942;-70
2022/11/23 09:03:06;;;;;;;;;;;;;;;;;;4408022;32;20485;-70
2022/11/23 09:05:31;;;;;;;18.40;4.60;;;;;;;;;;4427523;32;19941;-71
2022/11/23 09:07:59;;;;;;;16.98;3.72;;;;;;;;;;4423618;32;20044;-70
2022/11/23 09:10:25;;;;;;;18.02;3.97;;;;;;;;;;4422134;32;20045;-70
2022/11/23 09:12:50;;;;;;;;;;;;;;;;;;4421838;32;20022;-71
2022/11/23 09:15:15;;;;;;;21.50;4.10;;;;;;;;;;4422019;32;19981;-69
2022/11/23 09:17:40;;;;;;;16.23;4.55;;;;;;;;;;4422117;32;20054;-69
2022/11/23 09:20:06;;;;;;;19.80;3.72;;;;;;;;;;4420950;32;20381;-70
2022/11/23 09:22:31;;;;;;;152.15;18.37;;;;;;;;;;4420093;32;20026;-70
2022/11/23 09:24:56;;;;;;;23.24;5.90;;;;;;;;;;4419564;32;20056;-70
2022/11/23 09:27:21;;;;;;;;;;;;;;;;;;4418505;32;20065;-70
2022/11/23 09:29:47;;;;;;;19.80;4.62;;;;;;;;;;4410667;32;19938;-70
2022/11/23 09:32:12;;;;;;;;;;;;;;;;;;4416118;32;20349;-70
2022/11/23 09:34:37;;;;;;;21.98;5.00;;;;;;;;;;4419451;32;19965;-70
2022/11/23 09:37:02;;;;;;;23.40;4.47;;;;;;;;;;4422015;32;20079;-71
2022/11/23 09:39:27;;;;;;;23.42;4.50;;;;;;;;;;4420290;32;20056;-69
2022/11/23 09:41:53;;;;;;;;;;;;;;;;;;4408541;32;20317;-69
2022/11/23 09:44:36;;;;;;;15.90;3.90;;;;;;;;;;4423825;32;19966;-70
2022/11/23 09:47:02;;;;;;;27.62;5.07;;;;;;;;;;4421863;32;20056;-69
2022/11/23 09:49:32;;;;;;;14.15;3.22;;;;;;;;;;4421653;32;20045;-69
2022/11/23 09:51:57;;;;;;;20.35;4.18;;;;;;;;;;4407421;32;20072;-70
2022/11/23 09:54:22;;;;;;;;;;;;;;;;;;4424826;32;20085;-70
2022/11/23 09:56:50;;;;;;;14.90;3.80;;;;;;;;;;4414664;32;19937;-70
2022/11/23 09:59:22;;;;;;;19.17;3.83;;;;;;;;;;4421332;32;20159;-71
2022/11/23 10:01:47;;;;;;;19.87;4.18;;;;;;;;;;4424334;32;20025;-70
2022/11/23 10:04:13;;;;;;;;;;;;;;;;;;4420956;32;20091;-70
2022/11/23 10:06:41;;;;;;;21.20;4.45;;;;;;;;;;4422038;32;19941;-70
2022/11/23 10:09:25;;;;;;;125.18;17.20;;;;;;;;;;4421475;32;20050;-70
2022/11/23 10:11:53;;;;;;;20.73;4.00;;;;;;;;;;4422476;32;20443;-70
2022/11/23 10:14:25;;;;;;;17.98;4.28;;;;;;;;;;4421563;32;20068;-70
2022/11/23 10:17:00;;;;;;;16.87;3.62;;;;;;;;;;4411763;32;20485;-70
2022/11/23 10:19:33;;;;;;;18.92;5.00;;;;;;;;;;4407615;32;20022;-68
2022/11/23 10:22:17;;;;;;;15.75;2.90;;;;;;;;;;4414924;32;20374;-70
2022/11/23 10:24:44;;;;;;;15.32;4.37;;;;;;;;;;4404629;32;20033;-70
2022/11/23 10:27:14;;;;;;;25.12;4.72;;;;;;;;;;4420669;32;20061;-70
2022/11/23 10:29:40;;;;;;;13.15;4.28;;;;;;;;;;4420421;32;20089;-71
2022/11/23 10:32:11;;;;;;;17.35;3.87;;;;;;;;;;4420802;32;20030;-70
2022/11/23 10:34:49;;;;;;;18.58;4.50;;;;;;;;;;4405726;32;20038;-71
2022/11/23 10:37:16;;;;;;;19.37;5.53;;;;;;;;;;4404730;32;20041;-70
2022/11/23 10:39:41;;;;;;;184.07;22.45;;;;;;;;;;4407741;32;20034;-71
2022/11/23 10:42:06;;;;;;;;;;;;;;;;;;4420613;32;20072;-70
2022/11/23 10:44:35;;;;;;;15.15;4.70;;;;;;;;;;4420721;32;19945;-70
2022/11/23 10:47:01;;;;;;;16.50;4.18;;;;;;;;;;4420375;32;20160;-69
2022/11/23 10:49:28;;;;;;;;;;;;;;;;;;4421119;32;20343;-70
2022/11/23 10:51:57;;;;;;;15.60;3.97;;;;;;;;;;4420119;32;20016;-70
2022/11/23 10:54:30;;;;;;;17.75;4.60;;;;;;;;;;4420097;32;20447;-70
2022/11/23 10:56:56;;;;;;;17.90;4.72;;;;;;;;;;4406125;32;20019;-70
2022/11/23 10:59:21;;;;;;;;;;;;;;;;;;4407716;32;20037;-71
2022/11/23 11:01:58;;;;;;;16.33;3.47;;;;;;;;;;4406108;32;20377;-71
2022/11/23 11:04:24;;;;;;;16.92;3.62;;;;;;;;;;4421764;32;20092;-71
2022/11/23 11:06:49;;;;;;;11.00;3.92;;;;;;;;;;4418759;32;20038;-71
2022/11/23 11:09:14;;;;;;;;;;;;;;;;;;4410681;32;20096;-70
2022/11/23 11:11:44;;;;;;;16.45;4.32;;;;;;;;;;4404365;32;19957;-69
2022/11/23 11:14:17;;;;;;;15.20;3.92;;;;;;;;;;4406488;32;20084;-71
2022/11/23 11:16:52;;;;;;;17.83;3.97;;;;;;;;;;4406955;32;20027;-71
2022/11/23 11:19:20;;;;;;;18.62;4.20;;;;;;;;;;4409196;32;20042;-70
2022/11/23 11:21:45;;;;;;;157.70;17.55;;;;;;;;;;4407622;32;20022;-70
2022/11/23 11:24:10;;;;;;;;;;;;;;;;;;4408028;32;20432;-70
2022/11/23 11:26:46;;;;;;;15.00;3.87;;;;;;;;;;4408662;32;20280;-70
2022/11/23 11:29:22;;;;;;;15.15;3.17;;;;;;;;;;4408467;32;20018;-70
2022/11/23 11:32:05;;;;;;;19.40;3.17;;;;;;;;;;4413898;32;20484;-70
2022/11/23 11:34:31;;;;;;;20.25;3.80;;;;;;;;;;4409579;32;20053;-71
2022/11/23 11:36:56;;;;;;;;;;;;;;;;;;4408196;32;20019;-69
2022/11/23 11:39:31;;;;;;;12.37;2.83;;;;;;;;;;4393293;32;20326;-70
2022/11/23 11:41:58;;;;;;;9.60;3.33;;;;;;;;;;4415257;32;20117;-71
2022/11/23 11:44:25;;;;;;;11.68;3.10;;;;;;;;;;4423033;32;20026;-70
2022/11/23 11:46:56;;;;;;;14.65;3.58;;;;;;;;;;4421543;32;20030;-70
2022/11/23 11:49:30;;;;;;;13.07;3.08;;;;;;;;;;4422999;32;20401;-70
2022/11/23 11:52:01;;;;;;;11.68;2.85;;;;;;;;;;4408384;32;20088;-70
2022/11/23 11:54:45;;;;;;;120.97;14.70;;;;;;;;;;4423673;32;20022;-70
2022/11/23 11:57:21;;;;;;;13.82;3.28;;;;;;;;;;4412261;32;20172;-71
2022/11/23 11:59:48;;;;;;;14.95;3.80;;;;;;;;;;4412821;32;20025;-71
2022/11/23 12:02:28;;;;;;;19.62;4.37;;;;;;;;;;4421488;32;20033;-70
2022/11/23 12:05:08;;;;;;;14.77;3.12;;;;;;;;;;4405029;32;20054;-71
2022/11/23 12:07:35;;;;;;;13.65;4.18;;;;;;;;;;4414955;32;20125;-70
2022/11/23 12:10:15;;;;;;;11.73;2.70;;;;;;;;;;4409592;32;20031;-71
2022/11/23 12:12:40;;;;;;;10.88;3.22;;;;;;;;;;4407569;32;20026;-70
2022/11/23 12:15:06;;;;;;;;;;;;;;;;;;4408832;32;20052;-71
2022/11/23 12:17:37;;;;;;;9.63;3.03;;;;;;;;;;4418669;32;19945;-70
2022/11/23 12:20:05;;;;;;;17.42;3.15;;;;;;;;;;4422912;32;20022;-70
2022/11/23 12:22:36;;;;;;;10.88;3.20;;;;;;;;;;4421012;32;20022;-70
2022/11/23 12:25:10;;;;;;;17.12;5.00;;;;;;;;;;4408670;32;20049;-71
2022/11/23 12:27:42;;;;;;;13.40;3.30;;;;;;;;;;4408356;32;20054;-71
2022/11/23 12:30:17;;;;;;;21.27;3.67;;;;;;;;;;4423418;32;20018;-70
2022/11/23 12:32:43;;;;;;;9.95;2.50;;;;;;;;;;4422663;32;20110;-70
2022/11/23 12:35:09;;;;;;;;;;;;;;;;;;4407477;32;20042;-71
2022/11/23 12:37:42;;;;;;;11.68;2.83;;;;;;;;;;4421028;32;19953;-71
2022/11/23 12:40:21;;;;;;;9.32;2.72;;;;;;;;;;4423474;32;20027;-71
2022/11/23 12:42:48;;;;;;;8.70;2.42;;;;;;;;;;4417763;32;20393;-70
2022/11/23 12:45:32;;;;;;;17.40;3.53;;;;;;;;;;4392868;32;20066;-70
2022/11/23 12:48:06;;;;;;;11.65;2.08;;;;;;;;;;4406747;32;20105;-70
2022/11/23 12:50:34;;;;;;;11.20;2.25;;;;;;;;;;4406840;32;20018;-74
2022/11/23 12:53:12;;;;;;;11.25;2.47;;;;;;;;;;4404336;32;20021;-70
2022/11/23 12:55:52;;;;;;;7.32;2.10;;;;;;;;;;4423755;32;20048;-70
2022/11/23 12:58:27;;;;;;;10.95;2.72;;;;;;;;;;4420780;32;20412;-69
2022/11/23 13:00:56;;;;;;;12.55;2.08;;;;;;;;;;4421176;32;20065;-71
2022/11/23 13:03:27;;;;;;;9.05;2.20;;;;;;;;;;4418394;32;20128;-71
2022/11/23 13:06:11;;;;;;;8.25;2.08;;;;;;;;;;4400056;32;20096;-70
2022/11/23 13:08:43;;;;;;;8.18;2.33;;;;;;;;;;4416235;32;20056;-71
2022/11/23 13:11:14;;;;;;;11.00;2.50;;;;;;;;;;4415194;32;20026;-72
2022/11/23 13:13:44;;;;;;;15.93;2.58;;;;;;;;;;4422124;32;20044;-73
2022/11/23 13:16:28;;;;;;;15.68;2.62;;;;;;;;;;4421113;32;20034;-74
2022/11/23 13:19:06;;;;;;;12.73;2.40;;;;;;;;;;4419071;32;20107;-75
2022/11/23 13:21:36;;;;;;;11.48;3.15;;;;;;;;;;4402982;32;20056;-76
2022/11/23 13:24:01;;;;;;;12.80;2.50;;;;;;;;;;4392984;32;20026;-75
2022/11/23 13:26:32;;;;;;;;;;;;;;;;;;4410071;32;20417;-75
2022/11/23 13:28:58;;;;;;;9.98;3.47;;;;;;;;;;4421881;32;19960;-75
2022/11/23 13:31:23;;;;;;;;;;;;;;;;;;4424832;32;20237;-76
2022/11/23 13:33:49;;;;;;;10.27;2.62;;;;;;;;;;4427916;32;19994;-75
2022/11/23 13:36:14;;;;;;;;;;;;;;;;;;4408023;32;20027;-74
2022/11/23 13:38:41;;;;;;;14.73;4.05;;;;;;;;;;4421083;32;19937;-76
2022/11/23 13:41:25;;;;;;;13.73;3.40;;;;;;;;;;4415389;32;20101;-75
2022/11/23 13:43:50;;;;;;;9.15;3.10;;;;;;;;;;4420881;32;20440;-74
2022/11/23 13:46:15;;;;;;;;;;;;;;;;;;4418649;32;20038;-76
2022/11/23 13:48:44;;;;;;;34.08;7.70;;;;;;;;;;4421039;32;20010;-75
2022/11/23 13:51:10;;;;;;;18.27;4.25;;;;;;;;;;4419704;32;20087;-73
2022/11/23 13:53:35;;;;;;;;;;;;;;;;;;4403566;32;20101;-74
2022/11/23 13:56:15;;;;;;;11.52;3.28;;;;;;;;;;4419195;32;19945;-75
2022/11/23 13:58:48;;;;;;;55.70;7.20;;;;;;;;;;4411453;32;20387;-74
2022/11/23 14:01:33;;;;;;;12.48;3.47;;;;;;;;;;4406141;32;20355;-72
2022/11/23 14:04:17;;;;;;;14.32;2.60;;;;;;;;;;4413714;32;20182;-73
2022/11/23 14:06:43;;;;;;;12.15;3.08;;;;;;;;;;4420598;32;20072;-74
2022/11/23 14:09:08;;;;;;;;;;;;;;;;;;4420594;32;20156;-73
2022/11/23 14:11:56;;;;;;;12.70;3.20;;;;;;;;;;4417480;32;20363;-74
2022/11/23 14:14:24;;;;;;;7.43;2.58;;;;;;;;;;4411915;32;20042;-75
2022/11/23 14:17:13;;;;;;;12.93;3.55;;;;;;;;;;4421220;32;20030;-75
2022/11/23 14:19:48;;;;;;;16.95;4.07;;;;;;;;;;4419443;32;20125;-77
2022/11/23 14:22:29;;;;;;;12.98;3.33;;;;;;;;;;4405884;32;20026;-76
2022/11/23 14:25:01;;;;;;;10.65;3.37;;;;;;;;;;4420472;32;20467;-76
2022/11/23 14:27:32;;;;;;;11.27;3.12;;;;;;;;;;4413118;32;20046;-77
2022/11/23 14:30:03;;;;;;;11.77;2.90;;;;;;;;;;4418514;32;20056;-77
2022/11/23 14:32:41;;;;;;;14.40;3.72;;;;;;;;;;4418393;32;20097;-77
2022/11/23 14:35:35;;;;;;;12.88;3.47;;;;;;;;;;4418548;32;20041;-77
2022/11/23 14:38:09;;;;;;;13.65;3.28;;;;;;;;;;4373472;32;20429;-76
2022/11/23 14:40:50;;;;;;;11.65;3.35;;;;;;;;;;4396213;32;20050;-77
2022/11/23 14:43:18;;;;;;;12.48;3.70;;;;;;;;;;4421366;32;20468;-77
2022/11/23 14:45:43;;;;;;;12.45;3.17;;;;;;;;;;4420262;32;20088;-77
2022/11/23 14:48:08;;;;;;;;;;;;;;;;;;4420156;32;20125;-77
2022/11/23 14:50:33;;;;;;;14.68;4.12;;;;;;;;;;4421385;32;19987;-77
2022/11/23 14:52:59;;;;;;;10.30;3.50;;;;;;;;;;4428894;32;20049;-77
2022/11/23 14:55:24;;;;;;;;;;;;;;;;;;4428054;32;20046;-76
2022/11/23 14:57:52;;;;;;;8.32;3.05;;;;;;;;;;4421582;32;19936;-76
2022/11/23 15:00:37;;;;;;;9.82;4.43;;;;;;;;;;4406386;32;20363;-77
2022/11/23 15:03:08;;;;;;;8.32;2.80;;;;;;;;;;4406188;32;20069;-77
2022/11/23 15:05:34;;;;;;;16.75;3.72;;;;;;;;;;4420201;32;20069;-76